Wetterstation Rossbuehl

Zugriff auf die letzten 10 Werte 30 Werte 100 Werte 400 Werte

Datum_____UhrzeitWind
Mittel
Wind
min
Wind
Boe
Wind
BoeTag
Wind
Richtung
Temp1
Feuchte Station Power
type
BatterieInter
vall
SMS
JJJJ-MM-TT hh:mmkm/hmin SpitzePeak Grad °C % ID Ex.oBat Volt min St.
2020-12-01 02:47 16 15 18 267 -1.9 0 2 5.82 1
2020-12-01 02:32 21 19 24 280 -1.8 19 2 5.82 1
2020-12-01 02:17 16 11 22 286 -1.5 15 2 5.80 1
2020-12-01 02:02 15 7 20 241 -1.1 21 2 5.83 1
2020-12-01 01:47 14 12 19 250 -1.6 6 2 5.84 1
2020-12-01 01:32 20 11 27 246 -2.1 6 2 5.82 1
2020-12-01 01:17 16 12 18 239 -2.4 23 2 5.82 1
2020-12-01 01:02 14 13 15 266 -2.7 0 2 5.82 1
2020-12-01 00:47 13 7 22 277 -2.9 4 2 5.84 1
2020-12-01 00:32 15 8 22 266 -2.3 8 2 5.82 1
2020-12-01 00:17 14 11 16 242 -2 2 2 5.84 1
2020-12-01 00:03 16 15 17 245 -2.2 10 2 5.82 1
2020-11-30 23:47 11 8 14 256 -2.2 8 2 5.82 1
2020-11-30 23:32 14 7 20 254 -2.8 10 2 5.84 1
2020-11-30 23:17 14 7 22 240 -2.7 8 2 5.83 1
2020-11-30 23:02 14 14 15 262 -2.5 8 2 5.82 1
2020-11-30 22:47 17 13 19 267 -3.1 27 2 5.84 1
2020-11-30 22:32 9 4 13 304 -3.2 21 2 5.82 1
2020-11-30 22:17 16 14 18 269 -3.1 19 2 5.83 1
2020-11-30 22:02 10 7 14 248 -3.2 21 2 5.82 1